createdAt,value
2018-07-01T00:04:38.067Z,19.35
2018-07-01T00:09:40.433Z,19.36
2018-07-01T00:14:42.715Z,19.23
2018-07-01T00:19:45.023Z,19.18
2018-07-01T00:24:47.340Z,18.96
2018-07-01T00:29:49.647Z,18.89
2018-07-01T00:34:51.950Z,18.78
2018-07-01T00:39:54.318Z,18.53
2018-07-01T00:44:56.614Z,18.17
2018-07-01T00:49:58.925Z,18.28
2018-07-01T00:55:01.239Z,18.27
2018-07-01T01:00:04.070Z,18.30
2018-07-01T01:05:06.383Z,18.30
2018-07-01T01:10:08.716Z,18.18
2018-07-01T01:15:11.037Z,18.16
2018-07-01T01:20:13.359Z,18.14
2018-07-01T01:25:15.629Z,18.21
2018-07-01T01:30:17.923Z,18.18
2018-07-01T01:35:20.235Z,18.22
2018-07-01T01:40:25.668Z,18.17
2018-07-01T01:45:31.868Z,17.93
2018-07-01T01:51:12.539Z,18.03
2018-07-01T01:56:20.978Z,18.13
2018-07-01T02:01:28.606Z,18.28
2018-07-01T02:06:34.247Z,18.22
2018-07-01T02:11:40.022Z,18.21
2018-07-01T02:16:46.923Z,18.17
2018-07-01T02:21:49.494Z,18.13
2018-07-01T02:26:51.817Z,18.02
2018-07-01T02:31:54.094Z,17.97
2018-07-01T02:36:56.359Z,17.95
2018-07-01T02:41:58.696Z,17.96
2018-07-01T02:47:01.005Z,17.95
2018-07-01T02:52:03.695Z,18.00
2018-07-01T02:57:05.988Z,18.03
2018-07-01T03:02:08.271Z,17.96
2018-07-01T03:07:10.534Z,18.01
2018-07-01T03:12:12.842Z,17.88
2018-07-01T03:17:15.082Z,17.80
2018-07-01T03:22:17.358Z,17.82
2018-07-01T03:27:19.614Z,17.77
2018-07-01T03:32:21.872Z,17.75
2018-07-01T03:37:24.137Z,17.76
2018-07-01T03:42:26.418Z,17.82
2018-07-01T03:47:28.685Z,17.76
2018-07-01T03:52:30.931Z,17.74
2018-07-01T03:57:33.192Z,17.84
2018-07-01T04:02:35.459Z,17.92
2018-07-01T04:07:37.757Z,18.00
2018-07-01T04:12:40.058Z,17.97
2018-07-01T04:17:42.396Z,17.91
2018-07-01T04:22:44.637Z,18.03
2018-07-01T04:27:46.893Z,18.10
2018-07-01T04:32:49.168Z,18.04
2018-07-01T04:37:51.456Z,18.25
2018-07-01T04:42:53.730Z,18.12
2018-07-01T04:47:55.992Z,18.27
2018-07-01T04:52:58.291Z,18.34
2018-07-01T04:58:00.531Z,18.38
2018-07-01T05:03:02.996Z,18.35
2018-07-01T05:08:05.311Z,18.61
2018-07-01T05:13:07.595Z,18.72
2018-07-01T05:18:09.872Z,18.69
2018-07-01T05:23:12.150Z,18.70
2018-07-01T05:28:14.412Z,18.39
2018-07-01T05:33:16.685Z,18.58
2018-07-01T05:38:18.947Z,18.83
2018-07-01T05:43:21.222Z,18.98
2018-07-01T05:48:23.500Z,19.01
2018-07-01T05:53:25.762Z,19.13
2018-07-01T05:58:28.002Z,19.32
2018-07-01T06:03:30.503Z,19.47
2018-07-01T06:08:33.052Z,19.54
2018-07-01T06:13:35.311Z,19.62
2018-07-01T06:18:37.586Z,19.59
2018-07-01T06:23:39.859Z,19.54
2018-07-01T06:28:42.149Z,19.48
2018-07-01T06:33:44.428Z,19.57
2018-07-01T06:38:46.695Z,19.79
2018-07-01T06:43:49.032Z,19.91
2018-07-01T06:48:51.340Z,19.90
2018-07-01T06:53:53.642Z,20.23
2018-07-01T06:58:55.915Z,20.36
2018-07-01T07:03:58.190Z,20.47
2018-07-01T07:09:01.040Z,20.73
2018-07-01T07:14:03.610Z,20.94
2018-07-01T07:19:06.178Z,20.71
2018-07-01T07:24:08.501Z,20.92
2018-07-01T07:29:10.783Z,20.60
2018-07-01T07:34:13.122Z,20.77
2018-07-01T07:39:15.422Z,21.08
2018-07-01T07:44:17.694Z,21.31
2018-07-01T07:49:20.016Z,21.78
2018-07-01T07:54:22.410Z,21.97
2018-07-01T07:59:24.690Z,21.86
2018-07-01T08:04:26.989Z,21.71
2018-07-01T08:09:29.301Z,21.67
2018-07-01T08:14:31.633Z,22.04
2018-07-01T08:19:33.932Z,21.90
2018-07-01T08:24:36.248Z,21.92
2018-07-01T08:29:38.560Z,22.03
2018-07-01T08:34:40.974Z,22.32
2018-07-01T08:39:43.621Z,22.60
2018-07-01T08:44:45.943Z,22.64
2018-07-01T08:49:48.216Z,22.75
2018-07-01T08:54:50.562Z,22.75
2018-07-01T08:59:52.889Z,22.54
2018-07-01T09:04:55.174Z,22.67
2018-07-01T09:09:57.514Z,22.81
2018-07-01T09:14:59.820Z,22.93
2018-07-01T09:20:02.162Z,23.00
2018-07-01T09:25:05.006Z,22.81
2018-07-01T09:30:07.369Z,22.78
2018-07-01T09:35:09.662Z,22.81
2018-07-01T09:40:11.949Z,22.56
2018-07-01T09:45:14.272Z,22.83
2018-07-01T09:50:16.632Z,23.12
2018-07-01T09:55:19.026Z,23.14
2018-07-01T10:00:21.339Z,23.24
2018-07-01T10:05:23.660Z,23.55
2018-07-01T10:10:25.997Z,23.62
2018-07-01T10:15:28.374Z,23.95
2018-07-01T10:20:30.798Z,24.00
2018-07-01T10:25:33.221Z,23.65
2018-07-01T10:30:35.541Z,23.67
2018-07-01T10:35:37.870Z,23.93
2018-07-01T10:40:40.374Z,24.03
2018-07-01T10:45:42.701Z,24.21
2018-07-01T10:50:45.051Z,24.52
2018-07-01T10:55:47.394Z,24.70
2018-07-01T11:00:50.005Z,24.90
2018-07-01T11:05:52.294Z,25.06
2018-07-01T11:10:54.612Z,25.23
2018-07-01T11:15:57.154Z,25.51
2018-07-01T11:21:00.161Z,25.37
2018-07-01T11:26:02.523Z,25.26
2018-07-01T11:31:04.903Z,25.72
2018-07-01T11:36:07.278Z,25.72
2018-07-01T11:41:09.668Z,26.18
2018-07-01T11:46:12.028Z,26.37
2018-07-01T11:51:14.380Z,26.26
2018-07-01T11:56:16.726Z,26.38
2018-07-01T12:01:19.042Z,26.09
2018-07-01T12:06:21.351Z,26.67
2018-07-01T12:11:23.635Z,26.28
2018-07-01T12:16:25.970Z,26.77
2018-07-01T12:21:28.291Z,27.17
2018-07-01T12:26:30.632Z,26.49
2018-07-01T12:31:32.969Z,27.25
2018-07-01T12:36:35.304Z,27.94
2018-07-01T12:41:37.680Z,28.37
2018-07-01T12:46:40.054Z,28.85
2018-07-01T12:51:42.386Z,28.81
2018-07-01T12:56:44.744Z,28.79
2018-07-01T13:01:47.176Z,29.10
2018-07-01T13:06:49.495Z,29.50
2018-07-01T13:11:51.887Z,29.72
2018-07-01T13:16:54.196Z,29.71
2018-07-01T13:21:57.893Z,29.45
2018-07-01T13:27:00.284Z,28.52
2018-07-01T13:32:02.772Z,28.68
2018-07-01T13:37:05.319Z,28.40
2018-07-01T13:42:07.645Z,28.05
2018-07-01T13:47:09.954Z,28.29
2018-07-01T13:52:12.281Z,28.52
2018-07-01T13:57:14.641Z,28.42
2018-07-01T14:02:16.996Z,28.25
2018-07-01T14:07:19.310Z,28.32
2018-07-01T14:12:21.659Z,27.88
2018-07-01T14:17:24.011Z,28.00
2018-07-01T14:22:26.363Z,27.85
2018-07-01T14:27:28.690Z,27.82
2018-07-01T14:32:31.065Z,27.97
2018-07-01T14:37:33.379Z,28.43
2018-07-01T14:42:35.688Z,28.38
2018-07-01T14:47:38.235Z,28.13
2018-07-01T14:52:40.636Z,28.32
2018-07-01T14:57:43.011Z,28.33
2018-07-01T15:02:45.332Z,28.27
2018-07-01T15:07:47.678Z,28.25
2018-07-01T15:12:50.011Z,28.37
2018-07-01T15:17:52.366Z,28.25
2018-07-01T15:22:54.685Z,28.15
2018-07-01T15:27:57.037Z,28.00
2018-07-01T15:32:59.408Z,27.87
2018-07-01T15:38:01.925Z,28.28
2018-07-01T15:43:04.457Z,28.34
2018-07-01T15:48:06.791Z,28.17
2018-07-01T15:53:09.176Z,28.63
2018-07-01T15:58:11.505Z,28.23
2018-07-01T16:03:13.790Z,27.86
2018-07-01T16:08:16.293Z,28.08
2018-07-01T16:13:18.619Z,27.64
2018-07-01T16:18:20.974Z,27.93
2018-07-01T16:23:23.315Z,27.83
2018-07-01T16:28:31.330Z,27.70
2018-07-01T16:33:33.702Z,27.89
2018-07-01T16:38:36.006Z,27.45
2018-07-01T16:43:38.390Z,27.72
2018-07-01T16:48:40.766Z,27.84
2018-07-01T16:53:43.131Z,27.72
2018-07-01T16:58:45.485Z,27.72
2018-07-01T17:03:47.818Z,27.72
2018-07-01T17:08:50.122Z,27.56
2018-07-01T17:13:52.982Z,27.25
2018-07-01T17:18:55.344Z,27.37
2018-07-01T17:23:57.660Z,27.44
2018-07-01T17:29:00.011Z,27.24
2018-07-01T17:34:02.659Z,27.30
2018-07-01T17:39:07.379Z,27.13
2018-07-01T17:44:10.076Z,27.31
2018-07-01T17:49:12.439Z,26.94
2018-07-01T17:54:14.991Z,26.88
2018-07-01T17:59:17.291Z,26.63
2018-07-01T18:04:20.523Z,26.83
2018-07-01T18:09:22.900Z,26.85
2018-07-01T18:14:25.288Z,26.95
2018-07-01T18:19:27.669Z,26.23
2018-07-01T18:24:53.946Z,26.29
2018-07-01T18:29:32.419Z,26.27
2018-07-01T18:34:34.801Z,25.91
2018-07-01T18:39:37.252Z,25.25
2018-07-01T18:44:40.560Z,24.55
2018-07-01T18:49:42.968Z,24.53
2018-07-01T18:54:45.351Z,24.53
2018-07-01T18:59:47.784Z,24.45
2018-07-01T19:04:50.161Z,24.05
2018-07-01T19:09:52.508Z,24.16
2018-07-01T19:14:54.856Z,24.24
2018-07-01T19:19:57.342Z,24.28
2018-07-01T19:24:59.698Z,24.24
2018-07-01T19:30:02.068Z,24.16
2018-07-01T19:35:04.607Z,24.11
2018-07-01T19:40:06.963Z,24.02
2018-07-01T19:45:09.401Z,23.94
2018-07-01T19:50:11.789Z,23.89
2018-07-01T19:55:14.224Z,23.85
2018-07-01T20:00:16.643Z,23.74
2018-07-01T20:05:19.091Z,23.64
2018-07-01T20:10:21.459Z,23.65
2018-07-01T20:15:23.826Z,23.58
2018-07-01T20:20:26.175Z,23.50
2018-07-01T20:25:28.512Z,23.31
2018-07-01T20:30:30.852Z,22.76
2018-07-01T20:35:33.157Z,22.31
2018-07-01T20:40:35.503Z,21.95
2018-07-01T20:45:37.834Z,21.93
2018-07-01T20:50:40.214Z,21.82
2018-07-01T20:55:42.576Z,21.81
2018-07-01T21:00:44.901Z,21.71
2018-07-01T21:05:47.217Z,21.60
2018-07-01T21:10:49.500Z,21.43
2018-07-01T21:15:51.844Z,21.25
2018-07-01T21:20:54.183Z,21.16
2018-07-01T21:25:56.356Z,21.07
2018-07-01T21:30:58.512Z,20.88
2018-07-01T21:36:00.692Z,20.62
2018-07-01T21:41:02.910Z,20.53
2018-07-01T21:46:05.092Z,20.49
2018-07-01T21:51:07.784Z,20.39
2018-07-01T21:56:09.968Z,20.23
2018-07-01T22:01:12.211Z,20.23
2018-07-01T22:06:14.428Z,20.16
2018-07-01T22:11:44.664Z,20.04
2018-07-01T22:16:46.820Z,20.05
2018-07-01T22:21:50.069Z,19.84
2018-07-01T22:26:52.247Z,19.75
2018-07-01T22:31:54.478Z,19.76
2018-07-01T22:36:56.664Z,19.76
2018-07-01T22:41:59.907Z,19.73
2018-07-01T22:47:02.087Z,19.54
2018-07-01T22:52:04.296Z,19.52
2018-07-01T22:57:06.467Z,19.40
2018-07-01T23:03:17.019Z,19.28
2018-07-01T23:08:19.136Z,19.09
2018-07-01T23:13:21.307Z,18.98
2018-07-01T23:18:23.509Z,18.97
2018-07-01T23:23:25.701Z,18.91
2018-07-01T23:28:27.880Z,18.76
2018-07-01T23:33:30.018Z,18.76
2018-07-01T23:38:32.150Z,18.58
2018-07-01T23:43:34.319Z,18.48
2018-07-01T23:48:36.446Z,18.36
2018-07-01T23:53:38.573Z,18.40
2018-07-01T23:58:40.690Z,18.33
